Terminal Aerodrome Forecast
Issued by NWS Louisville, KY

Home | Current Version | Previous Version | Text Only | Print | Product List | Glossary On
Versions: 1 2 3 4 5 6 7 8 9 10 11 12 13 14 15 16
000
FTUS43 KLMK 191358 AAA
TAFBWG
TAF AMD
KBWG 191358Z 1914/2012 00000KT 3SM BR BKN015
      TEMPO 1914/1917 2SM BR BKN011
     FM191700 VRB03KT P6SM BKN015
     FM192000 VRB03KT P6SM BKN022
     FM200000 VRB03KT P6SM SCT025 SCT250
     FM200600 VRB03KT 3SM BR FEW012 BKN200=

USA.gov is the U.S. government's official web portal to all federal, state and local government web resources and services.